Time;durP1;ratioP1;P1;durP2;ratioP2;P2;SDS_P1;SDS_P2;PMS_P1;PMS_P2;Temp;Humidity;BMP_temperature;BMP_pressure;BME280_temperature;BME280_humidity;BME280_pressure;Samples;Min_cycle;Max_cycle;Signal;HPM_P1;HPM_P2
2021/12/31 00:00:15;;;;;;;1.70;0.30;;;30.60;85.50;;;;;;5049289;28;20051;-79
2021/12/31 00:02:43;;;;;;;1.27;0.15;;;30.70;84.20;;;;;;5047480;28;20479;-76
2021/12/31 00:05:10;;;;;;;0.85;0.47;;;30.80;83.60;;;;;;5060964;28;20032;-78
2021/12/31 00:07:38;;;;;;;0.38;0.15;;;30.80;83.30;;;;;;5050312;28;20047;-78
2021/12/31 00:10:07;;;;;;;1.42;0.10;;;30.70;82.70;;;;;;5036090;28;20025;-78
2021/12/31 00:12:35;;;;;;;1.48;0.30;;;30.60;81.40;;;;;;5049944;28;20036;-77
2021/12/31 00:15:03;;;;;;;2.20;0.30;;;30.60;82.80;;;;;;5051975;28;20411;-79
2021/12/31 00:17:30;;;;;;;0.43;0.30;;;30.60;80.40;;;;;;5049233;28;20040;-78
2021/12/31 00:20:18;;;;;;;0.68;0.10;;;30.70;80.70;;;;;;5046329;28;20834;-79
2021/12/31 00:25:14;;;;;;;0.95;0.10;;;30.80;76.80;;;;;;5054491;28;20025;-77
2021/12/31 00:27:41;;;;;;;0.25;0.10;;;31.00;78.70;;;;;;5048718;28;20033;-76
2021/12/31 00:30:10;;;;;;;0.68;0.30;;;31.20;79.70;;;;;;5047064;28;20028;-78
2021/12/31 00:32:38;;;;;;;0.55;0.17;;;31.20;78.50;;;;;;5048528;28;20059;-78
2021/12/31 00:35:06;;;;;;;0.10;0.00;;;30.90;79.10;;;;;;5046493;28;20568;-77
2021/12/31 00:37:36;;;;;;;0.30;0.10;;;30.90;75.10;;;;;;5024293;28;20064;-78
2021/12/31 00:40:09;;;;;;;0.22;0.10;;;31.20;77.70;;;;;;5030017;28;20029;-77
2021/12/31 00:42:37;;;;;;;1.38;0.45;;;31.50;74.70;;;;;;5047850;28;20032;-78
2021/12/31 00:45:07;;;;;;;0.40;0.20;;;31.20;75.20;;;;;;5033612;28;20040;-78
2021/12/31 00:47:34;;;;;;;4.00;1.10;;;31.50;72.80;;;;;;5048057;28;20036;-76
2021/12/31 00:50:03;;;;;;;1.95;0.28;;;31.60;75.10;;;;;;5046843;28;20457;-77
2021/12/31 00:52:30;;;;;;;1.48;0.80;;;31.50;73.80;;;;;;5048406;28;20036;-77
2021/12/31 00:54:57;;;;;;;2.35;0.38;;;31.80;74.30;;;;;;5048342;28;20017;-76
2021/12/31 00:57:25;;;;;;;1.60;0.17;;;31.90;72.20;;;;;;5046228;28;20043;-78
2021/12/31 00:59:52;;;;;;;1.25;0.30;;;32.20;74.00;;;;;;5046829;28;20094;-79
2021/12/31 01:02:22;;;;;;;2.83;0.20;;;32.30;71.10;;;;;;5052563;28;20060;-77
2021/12/31 01:04:50;;;;;;;0.73;0.40;;;31.80;70.60;;;;;;5056279;28;20611;-77
2021/12/31 01:07:17;;;;;;;0.82;0.22;;;31.70;71.40;;;;;;5055948;28;20093;-79
2021/12/31 01:09:45;;;;;;;0.95;0.15;;;31.80;69.70;;;;;;5057658;28;20039;-76
2021/12/31 01:12:14;;;;;;;0.80;0.22;;;31.90;69.70;;;;;;5055483;28;20510;-80
2021/12/31 01:20:15;;;;;;;0.30;0.00;;;31.70;71.20;;;;;;5069283;28;20024;-77
2021/12/31 01:22:42;;;;;;;0.08;0.00;;;32.20;66.10;;;;;;5070560;28;20108;-77
2021/12/31 01:25:10;;;;;;;0.00;0.00;;;32.50;70.60;;;;;;5070418;28;20078;-77
2021/12/31 01:27:42;;;;;;;0.22;0.10;;;33.10;70.40;;;;;;5071466;28;20090;-76
2021/12/31 01:30:13;;;;;;;0.20;0.10;;;33.10;66.50;;;;;;5069215;28;20445;-77
2021/12/31 01:32:42;;;;;;;0.43;0.10;;;33.20;67.70;;;;;;5068784;28;20033;-76
2021/12/31 01:35:09;;;;;;;0.75;0.13;;;33.10;66.30;;;;;;5071950;28;20029;-77
2021/12/31 01:37:37;;;;;;;1.00;0.10;;;32.80;65.80;;;;;;5070602;28;20119;-77
2021/12/31 01:40:06;;;;;;;0.55;0.10;;;32.70;66.90;;;;;;5069761;28;20035;-77
2021/12/31 01:42:34;;;;;;;2.28;0.10;;;33.00;65.60;;;;;;5068065;28;20057;-75
2021/12/31 01:45:14;;;;;;;0.65;0.20;;;33.30;66.30;;;;;;5068113;28;20120;-77
2021/12/31 01:50:22;;;;;;;0.25;0.08;;;33.20;63.10;;;;;;5063001;28;20499;-77
2021/12/31 01:52:50;;;;;;;0.57;0.10;;;32.90;66.50;;;;;;5069036;28;20127;-76
2021/12/31 01:55:18;;;;;;;0.47;0.10;;;32.70;67.40;;;;;;5067361;28;20036;-75
2021/12/31 01:57:45;;;;;;;0.40;0.15;;;32.90;68.90;;;;;;5068580;28;20399;-78
2021/12/31 02:00:13;;;;;;;2.30;0.08;;;32.90;67.20;;;;;;5071564;28;20039;-76
2021/12/31 02:02:46;;;;;;;1.40;0.20;;;32.90;67.20;;;;;;5070188;28;20074;-76
2021/12/31 02:05:15;;;;;;;0.95;0.20;;;33.00;67.70;;;;;;5066230;28;20097;-78
2021/12/31 02:07:42;;;;;;;0.65;0.20;;;33.20;67.40;;;;;;5050894;28;20386;-77
2021/12/31 02:10:11;;;;;;;0.80;0.10;;;33.30;65.70;;;;;;5067816;28;20870;-75
2021/12/31 02:24:37;;;;;;;1.00;0.32;;;34.80;68.80;;;;;;4932473;28;20050;-77
2021/12/31 02:27:04;;;;;;;0.38;0.10;;;35.00;72.00;;;;;;4967220;28;20035;-78
2021/12/31 02:29:32;;;;;;;0.60;0.10;;;35.00;67.10;;;;;;4966549;28;20034;-77
2021/12/31 02:31:59;;;;;;;0.35;0.30;;;35.00;64.80;;;;;;4967586;28;20485;-77
2021/12/31 02:34:26;;;;;;;0.85;0.25;;;35.20;66.20;;;;;;4968408;28;20029;-78
2021/12/31 02:36:54;;;;;;;0.20;0.05;;;35.30;63.70;;;;;;4974344;28;20469;-76
2021/12/31 02:39:21;;;;;;;0.28;0.20;;;34.30;63.20;;;;;;4967508;28;20047;-77
2021/12/31 02:41:49;;;;;;;1.30;0.15;;;34.10;62.50;;;;;;4971816;28;20026;-77
2021/12/31 02:44:16;;;;;;;0.10;0.05;;;34.00;62.60;;;;;;4975336;28;20389;-79
2021/12/31 02:46:44;;;;;;;0.10;0.10;;;34.10;62.40;;;;;;4967314;28;20030;-77
2021/12/31 02:49:11;;;;;;;0.20;0.10;;;34.10;63.10;;;;;;4964669;28;20493;-76
2021/12/31 02:51:38;;;;;;;1.35;0.28;;;33.90;61.80;;;;;;4964021;28;20031;-77
2021/12/31 02:54:11;;;;;;;0.20;0.10;;;34.30;61.40;;;;;;4962583;28;20037;-78
2021/12/31 02:56:39;;;;;;;1.13;0.47;;;34.70;63.60;;;;;;4975132;28;20023;-78
2021/12/31 02:59:08;;;;;;;0.15;0.10;;;35.10;61.20;;;;;;4972054;28;20470;-79
2021/12/31 03:01:35;;;;;;;0.00;0.00;;;35.00;60.20;;;;;;4975001;28;20104;-76
2021/12/31 03:04:04;;;;;;;1.33;0.20;;;34.80;61.80;;;;;;4968163;28;20440;-77
2021/12/31 03:06:33;;;;;;;1.90;0.73;;;34.90;59.80;;;;;;4964517;28;20030;-77
2021/12/31 03:09:01;;;;;;;2.55;0.22;;;34.70;60.10;;;;;;4958786;28;20019;-78
2021/12/31 03:11:30;;;;;;;0.50;0.10;;;34.80;61.60;;;;;;4968841;28;20485;-76
2021/12/31 03:14:00;;;;;;;0.10;0.00;;;34.80;59.50;;;;;;4962340;28;20500;-76
2021/12/31 03:16:27;;;;;;;0.30;0.00;;;34.90;59.30;;;;;;4967631;28;20078;-75
2021/12/31 03:18:56;;;;;;;0.47;0.20;;;34.80;59.00;;;;;;4970241;28;20137;-74
2021/12/31 03:21:23;;;;;;;0.70;0.10;;;34.90;60.70;;;;;;4959933;28;20654;-76
2021/12/31 03:23:52;;;;;;;0.20;0.00;;;35.20;61.40;;;;;;4958506;28;20059;-74
2021/12/31 03:26:21;;;;;;;0.20;0.10;;;35.50;61.80;;;;;;4964753;28;20023;-73
2021/12/31 03:28:49;;;;;;;0.20;0.00;;;35.50;59.20;;;;;;4967580;28;20584;-75
2021/12/31 03:31:17;;;;;;;1.10;0.10;;;35.60;57.70;;;;;;4961728;28;20042;-76
2021/12/31 03:33:44;;;;;;;1.10;0.10;;;35.70;59.80;;;;;;4969347;28;20035;-75
2021/12/31 03:36:11;;;;;;;0.52;0.10;;;35.80;58.60;;;;;;4968380;28;20031;-75
2021/12/31 03:38:39;;;;;;;0.82;0.10;;;35.40;57.00;;;;;;4966321;28;20064;-75
2021/12/31 03:41:06;;;;;;;1.92;0.10;;;35.10;58.30;;;;;;4961996;28;20023;-75
2021/12/31 03:43:33;;;;;;;1.13;0.00;;;34.90;57.90;;;;;;4963953;28;20026;-75
2021/12/31 03:46:01;;;;;;;1.42;0.25;;;35.20;60.80;;;;;;4967500;28;20038;-76
2021/12/31 03:48:28;;;;;;;0.47;0.10;;;35.50;59.20;;;;;;4961653;28;20031;-77
2021/12/31 03:50:56;;;;;;;0.00;0.00;;;35.60;57.70;;;;;;4971402;28;20019;-77
2021/12/31 03:53:23;;;;;;;0.40;0.10;;;35.50;58.60;;;;;;4962066;28;20433;-76
2021/12/31 03:55:50;;;;;;;0.40;0.00;;;35.50;59.10;;;;;;4953533;28;20024;-75
2021/12/31 03:58:18;;;;;;;0.20;0.10;;;35.60;59.20;;;;;;4964299;28;20093;-77
2021/12/31 04:00:46;;;;;;;0.45;0.10;;;35.70;59.40;;;;;;4970224;28;20371;-74
2021/12/31 04:03:13;;;;;;;0.63;0.40;;;35.80;56.70;;;;;;4964644;28;20030;-79
2021/12/31 04:05:42;;;;;;;2.72;0.22;;;35.50;57.60;;;;;;4965914;28;20051;-77
2021/12/31 04:08:10;;;;;;;0.55;0.20;;;35.20;63.10;;;;;;4967248;28;20066;-77
2021/12/31 04:10:42;;;;;;;1.45;0.10;;;34.60;64.40;;;;;;4965410;28;20378;-78
2021/12/31 04:13:10;;;;;;;0.40;0.13;;;34.50;65.80;;;;;;4962103;28;20037;-76
2021/12/31 04:15:38;;;;;;;0.35;0.00;;;34.40;66.30;;;;;;4966277;28;20472;-75
2021/12/31 04:18:05;;;;;;;2.85;0.32;;;34.40;66.50;;;;;;4968398;28;20047;-76
2021/12/31 04:20:42;;;;;;;0.20;0.00;;;34.50;66.60;;;;;;4970868;28;20019;-80
2021/12/31 04:23:26;;;;;;;1.15;0.10;;;34.70;66.50;;;;;;4958586;28;20677;-78
2021/12/31 04:25:55;;;;;;;2.70;0.22;;;34.90;66.80;;;;;;4959230;28;20110;-76
2021/12/31 04:28:24;;;;;;;1.10;0.10;;;34.90;66.80;;;;;;4958956;28;20042;-78
2021/12/31 04:30:51;;;;;;;0.55;0.30;;;34.90;67.80;;;;;;4961289;28;20051;-80
2021/12/31 04:33:19;;;;;;;0.30;0.15;;;34.80;66.90;;;;;;4965061;28;20046;-81
2021/12/31 04:35:46;;;;;;;2.92;0.30;;;34.70;65.80;;;;;;4965255;28;20029;-81
2021/12/31 04:38:14;;;;;;;0.85;0.20;;;34.20;66.20;;;;;;4955296;28;20700;-77
2021/12/31 04:40:41;;;;;;;1.45;0.10;;;33.90;66.30;;;;;;4958744;28;20122;-77
2021/12/31 04:43:09;;;;;;;1.63;0.10;;;33.80;67.30;;;;;;4961484;28;20082;-76
2021/12/31 04:45:36;;;;;;;0.45;0.13;;;33.30;67.80;;;;;;4959535;28;20111;-75
2021/12/31 04:48:04;;;;;;;1.08;0.50;;;32.90;68.60;;;;;;4960207;28;20026;-75
2021/12/31 04:50:31;;;;;;;1.17;0.10;;;32.80;69.00;;;;;;4959385;28;20073;-78
2021/12/31 04:52:59;;;;;;;1.20;0.20;;;32.30;69.70;;;;;;4968639;28;20532;-76
2021/12/31 04:55:27;;;;;;;0.00;0.00;;;31.90;71.40;;;;;;4960102;28;20043;-75
2021/12/31 04:57:54;;;;;;;1.65;0.20;;;32.10;71.20;;;;;;4959229;28;20047;-75
2021/12/31 05:00:21;;;;;;;0.22;0.20;;;32.30;71.00;;;;;;4967553;28;20027;-76
2021/12/31 05:02:48;;;;;;;0.52;0.15;;;32.20;70.50;;;;;;4967700;28;20105;-76
2021/12/31 05:05:16;;;;;;;2.70;0.30;;;32.30;70.70;;;;;;4964749;28;20027;-75
2021/12/31 05:07:43;;;;;;;0.65;0.45;;;32.40;70.40;;;;;;4967338;28;20061;-76
2021/12/31 05:10:11;;;;;;;0.15;0.10;;;32.60;70.60;;;;;;4968050;28;20026;-78
2021/12/31 05:12:38;;;;;;;0.82;0.20;;;32.80;69.80;;;;;;4966924;28;20113;-76
2021/12/31 05:15:09;;;;;;;0.60;0.20;;;32.70;69.90;;;;;;4969192;28;20026;-76
2021/12/31 05:17:38;;;;;;;0.63;0.20;;;32.90;70.40;;;;;;4965625;28;20027;-76
2021/12/31 05:20:06;;;;;;;0.63;0.40;;;33.00;69.70;;;;;;4965641;28;20038;-77
2021/12/31 05:22:34;;;;;;;1.00;0.30;;;32.80;69.90;;;;;;4972730;28;20102;-75
2021/12/31 05:25:01;;;;;;;0.38;0.10;;;32.40;70.50;;;;;;4970388;28;20497;-77
2021/12/31 05:27:28;;;;;;;0.65;0.50;;;32.30;70.70;;;;;;4964469;28;20030;-74
2021/12/31 05:29:56;;;;;;;0.88;0.10;;;32.20;70.90;;;;;;4964342;28;20045;-75
2021/12/31 05:32:23;;;;;;;0.85;0.10;;;32.30;70.80;;;;;;4958966;28;20018;-75
2021/12/31 05:34:51;;;;;;;3.08;0.75;;;32.20;71.30;;;;;;4965036;28;20035;-75
2021/12/31 05:37:18;;;;;;;0.38;0.10;;;32.00;71.20;;;;;;4965813;28;20041;-74
2021/12/31 05:39:45;;;;;;;0.28;0.17;;;32.00;71.60;;;;;;4965261;28;20034;-74
2021/12/31 05:42:13;;;;;;;1.33;0.30;;;31.90;72.20;;;;;;4969836;28;20030;-74
2021/12/31 05:44:41;;;;;;;2.10;0.88;;;31.90;72.00;;;;;;4964645;28;20058;-74
2021/12/31 05:47:10;;;;;;;1.27;0.20;;;32.00;72.30;;;;;;4969834;28;20034;-74
2021/12/31 05:49:37;;;;;;;0.25;0.15;;;31.80;72.40;;;;;;4969536;28;20632;-76
2021/12/31 05:52:05;;;;;;;1.10;0.32;;;31.40;73.40;;;;;;4968477;28;20030;-76
2021/12/31 05:54:32;;;;;;;1.65;0.10;;;31.10;74.00;;;;;;4969593;28;20026;-75
2021/12/31 05:57:00;;;;;;;2.75;0.40;;;31.20;74.10;;;;;;4966595;28;20392;-76
2021/12/31 05:59:27;;;;;;;0.85;0.20;;;31.20;73.80;;;;;;4964691;28;20039;-75
2021/12/31 06:01:54;;;;;;;3.72;0.73;;;31.30;73.90;;;;;;4968798;28;20544;-77
2021/12/31 06:04:22;;;;;;;2.38;0.32;;;31.40;73.50;;;;;;4964833;28;20437;-76
2021/12/31 06:06:50;;;;;;;1.08;0.10;;;31.30;74.10;;;;;;4970613;28;20038;-75
2021/12/31 06:09:17;;;;;;;2.15;0.10;;;31.40;73.60;;;;;;4970872;28;20038;-76
2021/12/31 06:11:45;;;;;;;0.80;0.20;;;31.50;73.90;;;;;;4969048;28;20050;-76
2021/12/31 06:14:13;;;;;;;1.88;0.20;;;31.60;74.00;;;;;;4968068;28;20761;-77
2021/12/31 06:16:42;;;;;;;0.82;0.30;;;31.50;73.30;;;;;;4968748;28;20074;-76
2021/12/31 06:19:13;;;;;;;1.27;0.45;;;31.60;73.60;;;;;;4964018;28;20129;-77
2021/12/31 06:21:42;;;;;;;1.15;0.15;;;31.50;73.00;;;;;;4970076;28;20031;-76
2021/12/31 06:24:10;;;;;;;0.70;0.20;;;31.40;73.00;;;;;;4965641;28;20070;-76
2021/12/31 06:26:38;;;;;;;0.70;0.20;;;31.10;73.40;;;;;;4969796;28;20028;-78
2021/12/31 06:29:06;;;;;;;1.52;0.20;;;30.80;73.30;;;;;;4972329;28;20493;-79
2021/12/31 06:31:33;;;;;;;1.05;0.28;;;30.70;72.90;;;;;;4966811;28;20045;-78
2021/12/31 06:34:00;;;;;;;1.33;0.20;;;30.70;73.20;;;;;;4966895;28;20033;-77
2021/12/31 06:36:28;;;;;;;0.80;0.10;;;30.80;72.80;;;;;;4979995;28;20446;-77
2021/12/31 06:38:57;;;;;;;1.23;0.10;;;30.80;72.90;;;;;;4973109;28;20057;-77
2021/12/31 06:41:24;;;;;;;0.45;0.10;;;30.70;73.10;;;;;;4965730;28;20038;-76
2021/12/31 06:43:52;;;;;;;0.85;0.10;;;30.70;73.60;;;;;;4965502;28;20031;-77
2021/12/31 06:46:20;;;;;;;2.40;0.30;;;30.60;73.60;;;;;;4966603;28;20033;-77
2021/12/31 06:48:48;;;;;;;2.42;0.20;;;30.60;74.50;;;;;;4971737;28;20114;-76
2021/12/31 06:51:15;;;;;;;0.70;0.10;;;30.50;73.70;;;;;;4976318;28;20038;-77
2021/12/31 06:53:43;;;;;;;0.85;0.20;;;30.50;74.50;;;;;;4966977;28;20024;-78
2021/12/31 06:56:10;;;;;;;0.88;0.10;;;30.40;75.10;;;;;;4964646;28;20031;-77
2021/12/31 06:58:37;;;;;;;2.90;0.57;;;30.20;75.90;;;;;;4965382;28;20033;-78
2021/12/31 07:01:05;;;;;;;1.45;0.30;;;30.20;76.40;;;;;;4967872;28;20048;-77
2021/12/31 07:03:32;;;;;;;0.57;0.50;;;30.20;76.50;;;;;;4971616;28;20018;-77
2021/12/31 07:06:00;;;;;;;4.70;0.50;;;30.20;76.60;;;;;;4973150;28;20030;-76
2021/12/31 07:08:27;;;;;;;2.20;0.47;;;30.00;77.20;;;;;;4967046;28;20506;-77
2021/12/31 07:10:54;;;;;;;1.33;0.40;;;29.90;77.30;;;;;;4976673;28;20068;-78
2021/12/31 07:13:22;;;;;;;2.00;0.52;;;29.60;78.10;;;;;;4972496;28;20033;-77
2021/12/31 07:15:51;;;;;;;3.92;0.35;;;29.60;78.70;;;;;;4975530;28;20026;-77
2021/12/31 07:18:20;;;;;;;1.15;0.30;;;29.40;79.00;;;;;;4965784;28;20993;-77
2021/12/31 07:20:49;;;;;;;2.65;0.30;;;29.30;79.30;;;;;;4973436;28;20037;-77
2021/12/31 07:23:19;;;;;;;2.58;0.47;;;29.30;79.70;;;;;;4966694;28;20402;-76
2021/12/31 07:25:47;;;;;;;1.60;0.88;;;29.20;80.00;;;;;;4968357;28;20081;-77
2021/12/31 07:28:16;;;;;;;2.03;0.20;;;29.00;76.80;;;;;;4960340;28;20417;-75
2021/12/31 07:30:44;;;;;;;0.80;0.32;;;28.80;77.40;;;;;;4969329;28;20023;-77
2021/12/31 07:33:19;;;;;;;0.32;0.10;;;28.70;77.50;;;;;;4968318;28;20040;-77
2021/12/31 07:35:46;;;;;;;;;;;28.50;76.40;;;;;;4969664;28;20409;-75
2021/12/31 07:38:20;;;;;;;0.68;0.20;;;28.30;77.40;;;;;;4967070;28;20323;-76
2021/12/31 07:40:51;;;;;;;1.58;0.65;;;28.30;76.10;;;;;;4968993;28;20476;-77
2021/12/31 07:43:21;;;;;;;1.70;0.32;;;28.20;76.90;;;;;;4964992;28;20065;-75
2021/12/31 07:45:49;;;;;;;0.55;0.10;;;28.10;76.60;;;;;;4965787;28;20046;-76
2021/12/31 07:48:17;;;;;;;2.08;0.20;;;28.10;76.60;;;;;;4966368;28;20027;-76
2021/12/31 07:50:45;;;;;;;0.82;0.10;;;27.90;77.30;;;;;;4973353;28;20499;-75
2021/12/31 07:53:12;;;;;;;1.08;0.30;;;27.60;80.10;;;;;;4968264;28;20369;-76
2021/12/31 07:55:39;;;;;;;2.08;0.20;;;27.20;81.50;;;;;;4965021;28;20127;-75
2021/12/31 07:58:07;;;;;;;1.00;0.25;;;27.10;82.20;;;;;;4966494;28;20033;-75
2021/12/31 08:00:35;;;;;;;3.22;2.85;;;27.20;82.00;;;;;;4962286;28;20030;-77
2021/12/31 08:03:04;;;;;;;6.43;5.70;;;27.20;82.00;;;;;;4963143;28;20153;-78
2021/12/31 08:05:32;;;;;;;6.38;3.90;;;27.10;81.20;;;;;;4967919;28;20110;-76
2021/12/31 08:08:04;;;;;;;5.00;1.00;;;27.10;82.00;;;;;;4964745;28;20710;-75
2021/12/31 08:10:33;;;;;;;6.53;3.35;;;27.00;83.90;;;;;;4958142;28;20049;-74
2021/12/31 08:13:01;;;;;;;5.03;1.00;;;27.00;83.20;;;;;;4964077;28;20031;-74
2021/12/31 08:15:30;;;;;;;2.75;0.55;;;27.10;82.90;;;;;;4966432;28;20706;-75
2021/12/31 08:17:57;;;;;;;2.70;0.50;;;27.00;83.10;;;;;;4966655;28;20133;-76
2021/12/31 08:20:25;;;;;;;3.22;0.75;;;26.90;83.40;;;;;;4969062;28;20245;-75
2021/12/31 08:22:53;;;;;;;3.63;0.40;;;26.90;83.90;;;;;;4963982;28;21840;-75
2021/12/31 08:25:21;;;;;;;1.67;0.50;;;26.80;85.20;;;;;;4962241;28;20105;-76
2021/12/31 08:27:48;;;;;;;5.38;0.93;;;26.80;85.40;;;;;;4966636;28;20129;-77
2021/12/31 08:30:15;;;;;;;1.83;0.35;;;26.70;85.70;;;;;;4968677;28;20038;-75
2021/12/31 08:32:43;;;;;;;1.90;0.30;;;26.50;87.00;;;;;;4968144;28;20042;-76
2021/12/31 08:35:10;;;;;;;4.72;2.80;;;26.40;87.50;;;;;;4963551;28;20062;-74
2021/12/31 08:37:38;;;;;;;14.75;9.38;;;26.50;86.60;;;;;;4957874;28;20027;-74
2021/12/31 08:40:06;;;;;;;5.53;3.58;;;26.40;87.20;;;;;;4959686;28;20042;-75
2021/12/31 08:42:34;;;;;;;2.10;0.63;;;26.30;87.70;;;;;;4967093;28;20035;-76
2021/12/31 08:45:01;;;;;;;4.38;1.67;;;26.20;88.30;;;;;;4986316;28;20038;-75
2021/12/31 08:47:28;;;;;;;5.72;1.45;;;26.00;89.00;;;;;;4969287;28;20389;-74
2021/12/31 08:49:56;;;;;;;3.42;1.33;;;26.00;89.00;;;;;;4967579;28;20030;-74
2021/12/31 08:52:23;;;;;;;4.97;2.58;;;26.00;89.30;;;;;;4967065;28;20102;-74
2021/12/31 08:54:51;;;;;;;7.38;1.80;;;26.00;89.80;;;;;;4969005;28;20135;-75
2021/12/31 08:57:19;;;;;;;9.68;5.00;;;25.80;90.10;;;;;;4968581;28;20081;-75
2021/12/31 08:59:46;;;;;;;7.28;4.07;;;25.80;90.30;;;;;;4967195;28;20031;-75
2021/12/31 09:02:14;;;;;;;13.40;5.75;;;25.80;90.50;;;;;;4978317;28;20022;-76
2021/12/31 09:04:41;;;;;;;14.32;8.90;;;25.80;90.70;;;;;;4964632;28;20082;-76
2021/12/31 09:07:08;;;;;;;6.10;1.70;;;25.70;90.80;;;;;;4963901;28;20031;-76
2021/12/31 09:09:36;;;;;;;3.83;0.60;;;25.70;91.10;;;;;;4966283;28;20027;-76
2021/12/31 09:12:03;;;;;;;5.45;1.02;;;25.60;91.20;;;;;;4967534;28;20038;-75
2021/12/31 09:14:31;;;;;;;1.30;0.50;;;25.50;91.00;;;;;;4963661;28;20106;-75
2021/12/31 09:17:00;;;;;;;1.48;0.68;;;25.30;91.00;;;;;;4959975;28;20031;-76
2021/12/31 09:19:27;;;;;;;3.08;1.00;;;25.20;91.20;;;;;;4965485;28;20040;-75
2021/12/31 09:21:55;;;;;;;3.70;0.60;;;25.10;91.30;;;;;;4966876;28;20441;-76
2021/12/31 09:24:24;;;;;;;3.92;0.80;;;25.10;91.50;;;;;;4966365;28;20503;-76
2021/12/31 09:26:51;;;;;;;3.80;0.80;;;25.20;91.50;;;;;;4969948;28;20121;-76
2021/12/31 09:29:21;;;;;;;6.80;0.85;;;25.20;91.60;;;;;;4970545;28;20031;-76
2021/12/31 09:31:49;;;;;;;3.28;0.50;;;25.00;91.70;;;;;;4971098;28;20034;-76
2021/12/31 09:34:16;;;;;;;1.95;0.50;;;24.90;92.00;;;;;;4970218;28;20058;-75
2021/12/31 09:36:44;;;;;;;5.18;0.93;;;24.90;92.10;;;;;;4973958;28;20105;-75
2021/12/31 09:39:11;;;;;;;1.38;0.60;;;24.90;92.30;;;;;;4971302;28;20046;-77
2021/12/31 09:41:39;;;;;;;1.40;0.50;;;24.90;92.70;;;;;;4972046;28;20022;-75
2021/12/31 09:44:07;;;;;;;1.63;0.68;;;24.70;93.00;;;;;;4970394;28;20121;-75
2021/12/31 09:46:35;;;;;;;4.32;0.60;;;24.70;93.20;;;;;;4974570;28;20323;-76
2021/12/31 09:49:03;;;;;;;1.80;0.70;;;24.60;93.60;;;;;;4972381;28;20488;-76
2021/12/31 09:51:31;;;;;;;2.35;0.60;;;24.50;94.00;;;;;;4969360;28;20540;-76
2021/12/31 09:53:59;;;;;;;4.93;0.85;;;24.50;94.20;;;;;;4969345;28;20953;-76
2021/12/31 09:56:27;;;;;;;1.77;0.60;;;24.40;94.40;;;;;;4971243;28;20042;-75
2021/12/31 09:58:54;;;;;;;2.22;0.70;;;24.40;94.60;;;;;;4970051;28;20035;-76
2021/12/31 10:01:22;;;;;;;4.47;0.55;;;24.40;94.70;;;;;;4973698;28;20126;-75
2021/12/31 10:03:57;;;;;;;3.13;0.75;;;24.30;95.00;;;;;;4971290;28;20019;-75
2021/12/31 10:06:24;;;;;;;2.97;0.40;;;24.20;95.30;;;;;;4969551;28;20021;-75
2021/12/31 10:08:57;;;;;;;1.25;0.40;;;24.20;95.50;;;;;;4967262;28;20041;-75
2021/12/31 10:11:25;;;;;;;3.63;0.60;;;24.20;95.60;;;;;;4962517;28;20030;-76
2021/12/31 10:13:55;;;;;;;2.17;0.28;;;24.20;95.80;;;;;;4969219;28;20445;-74
2021/12/31 10:16:26;;;;;;;6.72;0.57;;;24.20;96.00;;;;;;4972730;28;20054;-76
2021/12/31 10:19:09;;;;;;;3.15;0.40;;;24.10;96.40;;;;;;4969580;28;20049;-75
2021/12/31 10:21:41;;;;;;;1.52;0.32;;;24.00;96.70;;;;;;4972517;28;20027;-75
2021/12/31 10:24:33;;;;;;;3.05;0.80;;;23.90;97.00;;;;;;4969308;28;20292;-75
2021/12/31 10:27:12;;;;;;;4.78;1.40;;;24.00;97.00;;;;;;4971221;28;20103;-76
2021/12/31 10:30:02;;;;;;;4.32;1.00;;;24.00;97.10;;;;;;4971198;28;20029;-75
2021/12/31 10:32:32;;;;;;;2.90;1.08;;;24.10;97.10;;;;;;4960691;28;20054;-75
2021/12/31 10:35:21;;;;;;;2.90;0.82;;;24.10;97.10;;;;;;4973187;28;20074;-76
2021/12/31 10:38:01;;;;;;;3.20;0.55;;;24.10;97.20;;;;;;4973123;28;20034;-75
2021/12/31 10:40:39;;;;;;;3.05;0.60;;;24.00;97.60;;;;;;4973451;28;20039;-76
2021/12/31 10:43:18;;;;;;;2.72;0.82;;;23.90;97.70;;;;;;4968780;28;20019;-75
2021/12/31 10:46:01;;;;;;;3.42;0.60;;;23.90;97.80;;;;;;4973406;28;20900;-75
2021/12/31 10:49:06;;;;;;;2.38;1.17;;;23.90;97.90;;;;;;4971292;28;20027;-76
2021/12/31 10:51:42;;;;;;;9.75;3.20;;;23.90;98.00;;;;;;4957657;28;20173;-76
2021/12/31 10:57:35;;;;;;;2.85;1.20;;;23.70;98.60;;;;;;4965802;28;20065;-76
2021/12/31 11:00:07;;;;;;;8.98;2.97;;;23.70;98.60;;;;;;4967320;28;20050;-74
2021/12/31 11:02:35;;;;;;;5.50;3.28;;;23.70;98.80;;;;;;4968409;28;20054;-75
2021/12/31 11:05:04;;;;;;;5.63;1.75;;;23.60;99.00;;;;;;4970899;28;20037;-74
2021/12/31 11:07:32;;;;;;;6.60;2.45;;;23.50;99.20;;;;;;4972255;28;20110;-74
2021/12/31 11:10:01;;;;;;;7.80;3.72;;;23.50;99.40;;;;;;4970581;28;20561;-77
2021/12/31 11:12:30;;;;;;;38.97;18.52;;;23.50;99.50;;;;;;4966244;28;20026;-75
2021/12/31 11:14:57;;;;;;;30.33;13.40;;;23.50;99.80;;;;;;4971233;28;20031;-77
2021/12/31 11:17:25;;;;;;;11.52;6.05;;;23.50;99.90;;;;;;4959088;28;20046;-76
2021/12/31 11:19:54;;;;;;;22.45;10.23;;;23.50;99.80;;;;;;4959808;28;20031;-76
2021/12/31 11:22:27;;;;;;;62.88;33.25;;;23.50;99.90;;;;;;4966064;28;20041;-74
2021/12/31 11:25:14;;;;;;;55.30;31.08;;;23.50;99.90;;;;;;4963708;28;20045;-75
2021/12/31 11:27:47;;;;;;;27.13;13.23;;;23.40;99.90;;;;;;4962313;28;20027;-76
2021/12/31 11:30:39;;;;;;;14.57;5.18;;;23.20;99.90;;;;;;4969111;28;20019;-75
2021/12/31 11:33:14;;;;;;;10.23;3.45;;;23.20;99.90;;;;;;4975921;28;20378;-76
2021/12/31 11:36:02;;;;;;;6.93;1.73;;;23.10;99.90;;;;;;4970271;28;20050;-76
2021/12/31 11:38:29;;;;;;;6.72;1.20;;;23.10;99.90;;;;;;4968640;28;20046;-74
2021/12/31 11:41:04;;;;;;;4.47;1.95;;;23.00;99.90;;;;;;4970627;28;20110;-76
2021/12/31 11:43:32;;;;;;;7.47;2.37;;;22.90;99.90;;;;;;4976582;28;20035;-77
2021/12/31 11:46:12;;;;;;;5.40;2.28;;;22.90;99.90;;;;;;4984347;28;20034;-76
2021/12/31 11:48:49;;;;;;;7.30;2.78;;;22.80;99.90;;;;;;4972687;28;20507;-77
2021/12/31 11:51:24;;;;;;;5.18;1.58;;;22.90;99.90;;;;;;4970844;28;20104;-77
2021/12/31 11:54:01;;;;;;;6.55;2.00;;;22.80;99.90;;;;;;4968261;28;20109;-77
2021/12/31 11:56:37;;;;;;;6.47;3.10;;;22.80;99.90;;;;;;4967865;28;20026;-78
2021/12/31 11:59:10;;;;;;;8.00;2.80;;;22.80;99.90;;;;;;4964761;28;20034;-76
2021/12/31 12:01:37;;;;;;;6.22;2.75;;;22.80;99.90;;;;;;4971788;28;20029;-78
2021/12/31 12:04:33;;;;;;;8.40;3.92;;;22.80;99.90;;;;;;4969637;28;20031;-76
2021/12/31 12:07:35;;;;;;;6.00;2.75;;;22.80;99.90;;;;;;4966862;28;20111;-76
2021/12/31 12:10:02;;;;;;;5.82;1.83;;;22.80;99.90;;;;;;4960373;28;20057;-77
2021/12/31 12:12:35;;;;;;;4.25;1.92;;;22.80;99.90;;;;;;4975129;28;20505;-75
2021/12/31 12:15:16;;;;;;;8.95;1.40;;;22.90;99.90;;;;;;4963452;28;20046;-75
2021/12/31 12:17:44;;;;;;;3.55;1.65;;;22.80;99.90;;;;;;4956896;28;20105;-76
2021/12/31 12:20:18;;;;;;;4.15;1.40;;;22.80;99.90;;;;;;4965398;28;20545;-74
2021/12/31 12:22:55;;;;;;;3.25;1.17;;;22.70;99.90;;;;;;4968200;28;20050;-74
2021/12/31 12:25:33;;;;;;;5.55;1.63;;;22.60;99.90;;;;;;4965384;28;20031;-76
2021/12/31 12:28:05;;;;;;;5.22;1.75;;;22.60;99.90;;;;;;4961764;28;20062;-76
2021/12/31 12:30:36;;;;;;;3.10;1.17;;;22.50;99.90;;;;;;4968088;28;20089;-75
2021/12/31 12:33:16;;;;;;;6.97;2.53;;;22.50;99.90;;;;;;4961721;28;20097;-78
2021/12/31 12:35:48;;;;;;;5.45;1.77;;;22.40;99.90;;;;;;4964871;28;20061;-77
2021/12/31 12:38:23;;;;;;;3.65;1.40;;;22.30;99.90;;;;;;4969970;28;20038;-76
2021/12/31 12:40:55;;;;;;;4.57;1.60;;;22.20;99.90;;;;;;4966623;28;20390;-78
2021/12/31 12:43:25;;;;;;;5.15;1.85;;;22.20;99.90;;;;;;4972473;28;20453;-77
2021/12/31 12:45:55;;;;;;;4.70;1.65;;;22.10;99.90;;;;;;4971973;28;20062;-78
2021/12/31 12:48:42;;;;;;;5.15;1.40;;;22.00;99.90;;;;;;4986472;28;20131;-79
2021/12/31 12:51:15;;;;;;;4.80;1.60;;;22.00;99.90;;;;;;4972364;28;20041;-76
2021/12/31 12:53:50;;;;;;;3.42;1.13;;;21.90;99.90;;;;;;4974847;28;20049;-76
2021/12/31 12:56:21;;;;;;;3.40;1.38;;;21.90;99.90;;;;;;4976467;28;20370;-81
2021/12/31 12:59:00;;;;;;;9.10;1.58;;;21.80;99.90;;;;;;4970119;28;20093;-78
2021/12/31 13:01:46;;;;;;;3.67;1.50;;;21.70;99.90;;;;;;4977460;28;20366;-76
2021/12/31 13:04:15;;;;;;;7.65;2.90;;;21.70;99.90;;;;;;4983301;28;20038;-78
2021/12/31 13:07:07;;;;;;;9.85;2.83;;;21.70;99.90;;;;;;4994693;28;20466;-79
2021/12/31 13:09:34;;;;;;;4.15;2.10;;;21.70;99.90;;;;;;4965323;28;20058;-77
2021/12/31 13:12:04;;;;;;;5.57;1.90;;;21.60;99.90;;;;;;4956048;28;20513;-77
2021/12/31 13:14:37;;;;;;;7.95;3.65;;;21.60;99.90;;;;;;4971700;28;20076;-78
2021/12/31 13:17:05;;;;;;;3.50;2.22;;;21.60;99.90;;;;;;4986778;28;20436;-77
2021/12/31 13:19:37;;;;;;;8.30;3.80;;;21.50;99.90;;;;;;4989839;28;20235;-74
2021/12/31 13:22:07;;;;;;;13.70;5.57;;;21.50;99.90;;;;;;4974638;28;20030;-74
2021/12/31 13:24:36;;;;;;;9.48;6.03;;;21.40;99.90;;;;;;4985188;28;20086;-74